createdAt,value
2018-02-20T00:01:02.328Z,62.30
2018-02-20T00:03:31.126Z,57.27
2018-02-20T00:05:59.917Z,56.93
2018-02-20T00:08:29.088Z,65.90
2018-02-20T00:10:57.899Z,57.10
2018-02-20T00:13:26.756Z,61.20
2018-02-20T00:15:55.663Z,62.83
2018-02-20T00:18:24.452Z,56.03
2018-02-20T00:20:53.326Z,49.87
2018-02-20T00:23:22.208Z,56.37
2018-02-20T00:25:51.036Z,55.97
2018-02-20T00:28:19.838Z,63.07
2018-02-20T00:30:48.728Z,52.93
2018-02-20T00:33:17.809Z,60.97
2018-02-20T00:35:46.916Z,53.33
2018-02-20T00:38:15.756Z,56.37
2018-02-20T00:40:44.589Z,52.57
2018-02-20T00:43:13.379Z,54.03
2018-02-20T00:45:42.245Z,62.73
2018-02-20T00:48:11.411Z,50.93
2018-02-20T00:50:40.242Z,52.43
2018-02-20T00:53:09.474Z,52.73
2018-02-20T00:55:38.288Z,55.43
2018-02-20T00:58:07.215Z,57.37
2018-02-20T01:00:36.364Z,55.83
2018-02-20T01:03:05.875Z,60.60
2018-02-20T01:05:35.032Z,54.23
2018-02-20T01:08:03.885Z,51.80
2018-02-20T01:10:32.705Z,51.43
2018-02-20T01:13:01.503Z,52.57
2018-02-20T01:15:30.629Z,49.88
2018-02-20T01:17:59.449Z,47.93
2018-02-20T01:20:28.541Z,45.83
2018-02-20T01:22:57.377Z,41.63
2018-02-20T01:25:26.700Z,45.80
2018-02-20T01:27:55.868Z,47.35
2018-02-20T01:30:25.010Z,51.50
2018-02-20T01:32:54.165Z,53.72
2018-02-20T01:35:23.505Z,44.88
2018-02-20T01:37:52.635Z,56.95
2018-02-20T01:40:21.814Z,51.47
2018-02-20T01:42:51.023Z,65.73
2018-02-20T01:45:20.176Z,61.47
2018-02-20T01:47:50.607Z,104.60
2018-02-20T01:50:20.981Z,114.57
2018-02-20T01:52:51.501Z,105.85
2018-02-20T01:55:30.027Z,84.44
2018-02-20T01:57:59.143Z,79.53
2018-02-20T02:00:28.424Z,59.26
2018-02-20T02:02:57.574Z,56.06
2018-02-20T02:05:27.207Z,55.12
2018-02-20T02:07:57.928Z,45.47
2018-02-20T02:10:27.720Z,47.00
2018-02-20T02:12:58.345Z,55.38
2018-02-20T02:15:29.147Z,50.47
2018-02-20T02:18:01.600Z,58.65
2018-02-20T02:20:32.104Z,48.75
2018-02-20T02:23:02.749Z,46.97
2018-02-20T02:25:33.345Z,58.35
2018-02-20T02:28:05.199Z,49.10
2018-02-20T02:30:35.564Z,55.85
2018-02-20T02:33:06.193Z,52.92
2018-02-20T02:35:37.472Z,55.16
2018-02-20T02:38:08.234Z,53.13
2018-02-20T02:40:38.726Z,58.30
2018-02-20T02:43:09.404Z,53.47
2018-02-20T02:45:40.642Z,58.87
2018-02-20T02:48:12.110Z,56.78
2018-02-20T02:50:42.655Z,58.90
2018-02-20T02:53:13.980Z,59.78
2018-02-20T02:55:45.317Z,60.72
2018-02-20T02:58:16.015Z,62.20
2018-02-20T03:00:46.562Z,58.46
2018-02-20T03:03:17.923Z,58.42
2018-02-20T03:05:48.247Z,58.33
2018-02-20T03:08:19.008Z,66.97
2018-02-20T03:10:49.507Z,60.58
2018-02-20T03:13:22.061Z,63.75
2018-02-20T03:15:52.427Z,66.34
2018-02-20T03:18:23.318Z,66.15
2018-02-20T03:20:53.668Z,67.05
2018-02-20T03:23:24.272Z,63.50
2018-02-20T03:25:55.736Z,60.78
2018-02-20T03:28:26.049Z,64.28
2018-02-20T03:30:57.900Z,61.42
2018-02-20T03:33:28.447Z,81.07
2018-02-20T03:35:59.313Z,62.78
2018-02-20T03:38:29.895Z,58.10
2018-02-20T03:41:00.463Z,70.37
2018-02-20T03:43:31.067Z,71.70
2018-02-20T03:46:01.298Z,63.67
2018-02-20T03:48:32.258Z,64.65
2018-02-20T03:51:03.478Z,63.00
2018-02-20T03:53:34.959Z,75.47
2018-02-20T03:56:05.443Z,68.66
2018-02-20T03:58:36.242Z,68.70
2018-02-20T04:01:06.389Z,68.68
2018-02-20T04:03:37.861Z,66.37
2018-02-20T04:06:08.573Z,63.75
2018-02-20T04:08:39.219Z,71.07
2018-02-20T04:11:11.148Z,65.80
2018-02-20T04:13:40.967Z,73.43
2018-02-20T04:16:12.088Z,70.80
2018-02-20T04:18:43.257Z,74.48
2018-02-20T04:21:14.867Z,70.45
2018-02-20T04:23:45.400Z,71.74
2018-02-20T04:26:15.983Z,67.35
2018-02-20T04:28:47.041Z,69.35
2018-02-20T04:31:18.598Z,77.06
2018-02-20T04:33:49.148Z,68.78
2018-02-20T04:36:19.612Z,71.93
2018-02-20T04:38:50.784Z,64.85
2018-02-20T04:41:21.188Z,66.90
2018-02-20T04:43:52.084Z,75.57
2018-02-20T04:46:23.987Z,69.62
2018-02-20T04:48:54.401Z,74.40
2018-02-20T04:51:25.888Z,102.08
2018-02-20T04:53:57.139Z,91.05
2018-02-20T04:56:26.781Z,73.25
2018-02-20T04:58:57.643Z,67.47
2018-02-20T05:01:28.850Z,66.74
2018-02-20T05:04:00.415Z,62.62
2018-02-20T05:09:08.941Z,56.58
2018-02-20T05:11:38.039Z,62.70
2018-02-20T05:14:07.127Z,57.75
2018-02-20T05:16:39.467Z,54.46
2018-02-20T05:19:08.558Z,59.35
2018-02-20T05:21:37.652Z,59.20
2018-02-20T05:24:08.120Z,58.25
2018-02-20T05:26:38.326Z,54.37
2018-02-20T05:29:09.327Z,56.35
2018-02-20T05:31:39.796Z,57.75
2018-02-20T05:34:11.460Z,59.16
2018-02-20T05:36:42.871Z,68.26
2018-02-20T05:39:13.727Z,60.95
2018-02-20T05:41:43.248Z,63.92
2018-02-20T05:44:14.700Z,63.90
2018-02-20T05:46:45.257Z,61.17
2018-02-20T05:49:16.041Z,66.62
2018-02-20T05:51:46.909Z,72.62
2018-02-20T05:54:17.121Z,80.25
2018-02-20T05:56:47.512Z,100.53
2018-02-20T05:59:18.461Z,90.45
2018-02-20T06:01:51.879Z,89.03
2018-02-20T06:04:21.454Z,81.43
2018-02-20T06:06:51.587Z,72.62
2018-02-20T06:09:22.583Z,59.25
2018-02-20T06:11:52.995Z,64.65
2018-02-20T06:14:23.968Z,65.32
2018-02-20T06:16:54.862Z,66.53
2018-02-20T06:19:26.432Z,75.28
2018-02-20T06:21:57.962Z,65.80
2018-02-20T06:24:29.506Z,75.26
2018-02-20T06:26:59.328Z,82.60
2018-02-20T06:29:30.017Z,78.35
2018-02-20T06:32:00.535Z,88.32
2018-02-20T06:34:31.075Z,83.70
2018-02-20T06:37:01.946Z,83.57
2018-02-20T06:39:32.651Z,81.55
2018-02-20T06:42:04.079Z,72.58
2018-02-20T06:44:35.067Z,78.50
2018-02-20T06:47:05.692Z,61.95
2018-02-20T06:49:36.579Z,68.07
2018-02-20T06:52:07.100Z,64.00
2018-02-20T06:54:37.926Z,69.28
2018-02-20T06:57:08.763Z,68.20
2018-02-20T06:59:39.711Z,62.60
2018-02-20T07:02:10.611Z,63.72
2018-02-20T07:04:42.039Z,60.74
2018-02-20T07:07:12.938Z,63.60
2018-02-20T07:09:44.000Z,65.90
2018-02-20T07:12:14.836Z,62.17
2018-02-20T07:14:45.621Z,81.78
2018-02-20T07:17:15.968Z,84.40
2018-02-20T07:19:46.927Z,119.43
2018-02-20T07:22:17.775Z,121.53
2018-02-20T07:24:48.692Z,124.47
2018-02-20T07:27:19.285Z,112.50
2018-02-20T07:29:50.904Z,155.98
2018-02-20T07:32:21.755Z,105.57
2018-02-20T07:34:52.086Z,89.80
2018-02-20T07:37:22.515Z,100.45
2018-02-20T07:39:53.283Z,83.03
2018-02-20T07:42:24.195Z,95.22
2018-02-20T07:44:55.185Z,70.37
2018-02-20T07:47:26.423Z,116.76
2018-02-20T07:49:57.473Z,119.28
2018-02-20T07:52:27.144Z,122.62
2018-02-20T07:54:58.808Z,69.10
2018-02-20T07:57:29.332Z,65.62
2018-02-20T08:00:00.197Z,64.20
2018-02-20T08:02:31.475Z,62.32
2018-02-20T08:05:02.312Z,67.40
2018-02-20T08:07:33.203Z,67.97
2018-02-20T08:10:04.238Z,79.28
2018-02-20T08:12:34.817Z,71.20
2018-02-20T08:15:06.480Z,66.12
2018-02-20T08:17:37.904Z,65.40
2018-02-20T08:20:08.799Z,56.25
2018-02-20T08:22:39.647Z,62.78
2018-02-20T08:25:10.629Z,64.97
2018-02-20T08:27:42.465Z,73.62
2018-02-20T08:30:12.911Z,72.53
2018-02-20T08:32:43.739Z,62.30
2018-02-20T08:35:14.689Z,60.67
2018-02-20T08:37:45.560Z,60.55
2018-02-20T08:40:16.943Z,57.98
2018-02-20T08:42:47.789Z,63.63
2018-02-20T08:45:18.693Z,67.12
2018-02-20T08:47:49.556Z,62.70
2018-02-20T08:50:20.903Z,53.72
2018-02-20T08:52:51.771Z,60.03
2018-02-20T08:55:22.649Z,69.32
2018-02-20T08:57:53.896Z,65.72
2018-02-20T09:00:24.804Z,63.15
2018-02-20T09:02:55.614Z,63.90
2018-02-20T09:05:26.983Z,61.44
2018-02-20T09:07:57.721Z,57.47
2018-02-20T09:10:28.687Z,63.58
2018-02-20T09:12:59.182Z,57.38
2018-02-20T09:15:29.912Z,54.92
2018-02-20T09:18:00.733Z,55.33
2018-02-20T09:20:31.685Z,60.25
2018-02-20T09:23:03.034Z,57.28
2018-02-20T09:25:33.989Z,59.80
2018-02-20T09:28:04.807Z,55.83
2018-02-20T09:30:35.681Z,53.05
2018-02-20T09:33:07.096Z,64.36
2018-02-20T09:35:37.860Z,54.35
2018-02-20T09:38:08.171Z,57.83
2018-02-20T09:40:38.618Z,62.47
2018-02-20T09:43:09.184Z,58.70
2018-02-20T09:45:40.658Z,56.38
2018-02-20T09:48:11.953Z,60.36
2018-02-20T09:50:43.484Z,66.56
2018-02-20T09:53:14.257Z,77.76
2018-02-20T09:55:45.191Z,57.75
2018-02-20T09:58:14.756Z,61.13
2018-02-20T10:00:45.279Z,53.05
2018-02-20T10:03:16.846Z,57.20
2018-02-20T10:05:47.733Z,69.85
2018-02-20T10:08:21.911Z,62.10
2018-02-20T10:10:51.509Z,66.94
2018-02-20T10:13:21.155Z,56.58
2018-02-20T10:15:52.866Z,53.03
2018-02-20T10:18:23.368Z,50.66
2018-02-20T10:20:54.042Z,53.63
2018-02-20T10:23:24.834Z,55.75
2018-02-20T10:25:56.258Z,52.30
2018-02-20T10:28:27.003Z,53.22
2018-02-20T10:30:57.915Z,57.28
2018-02-20T10:33:29.157Z,45.58
2018-02-20T10:35:59.856Z,49.88
2018-02-20T10:38:30.700Z,48.65
2018-02-20T10:41:01.080Z,52.75
2018-02-20T10:43:31.536Z,49.38
2018-02-20T10:46:02.243Z,53.05
2018-02-20T10:48:33.117Z,52.30
2018-02-20T10:51:03.868Z,51.28
2018-02-20T10:53:34.378Z,48.58
2018-02-20T10:56:04.152Z,49.88
2018-02-20T10:58:34.780Z,51.58
2018-02-20T11:01:06.057Z,57.00
2018-02-20T11:03:39.160Z,56.70
2018-02-20T11:06:09.694Z,45.58
2018-02-20T11:08:40.506Z,45.80
2018-02-20T11:11:11.152Z,45.45
2018-02-20T11:13:42.380Z,49.52
2018-02-20T11:16:13.230Z,56.15
2018-02-20T11:18:44.111Z,53.75
2018-02-20T11:21:14.582Z,52.40
2018-02-20T11:23:45.189Z,56.95
2018-02-20T11:26:16.469Z,56.90
2018-02-20T11:28:47.107Z,54.53
2018-02-20T11:31:18.463Z,50.66
2018-02-20T11:33:49.831Z,59.90
2018-02-20T11:36:20.717Z,55.53
2018-02-20T11:38:51.608Z,51.28
2018-02-20T11:41:26.277Z,56.60
2018-02-20T11:43:55.369Z,52.20
2018-02-20T11:46:25.221Z,54.22
2018-02-20T11:48:55.953Z,54.75
2018-02-20T11:51:27.346Z,58.50
2018-02-20T11:53:57.996Z,51.35
2018-02-20T11:56:28.841Z,58.28
2018-02-20T11:58:59.720Z,52.97
2018-02-20T12:01:30.761Z,50.08
2018-02-20T12:04:01.320Z,51.86
2018-02-20T12:06:31.509Z,48.30
2018-02-20T12:09:02.061Z,50.03
2018-02-20T12:11:32.848Z,44.75
2018-02-20T12:14:03.806Z,44.63
2018-02-20T12:16:34.806Z,46.22
2018-02-20T12:19:05.620Z,56.12
2018-02-20T12:21:36.171Z,53.60
2018-02-20T12:24:06.824Z,50.74
2018-02-20T12:26:37.303Z,49.68
2018-02-20T12:29:07.946Z,48.38
2018-02-20T12:31:38.737Z,52.00
2018-02-20T12:34:09.616Z,47.65
2018-02-20T12:36:40.568Z,53.45
2018-02-20T12:39:11.928Z,54.94
2018-02-20T12:41:42.777Z,57.35
2018-02-20T12:44:13.728Z,49.83
2018-02-20T12:46:44.520Z,49.47
2018-02-20T12:49:15.887Z,51.16
2018-02-20T12:51:46.704Z,50.55
2018-02-20T12:54:17.636Z,51.45
2018-02-20T12:56:48.960Z,53.90
2018-02-20T12:59:19.833Z,55.67
2018-02-20T13:01:50.958Z,62.30
2018-02-20T13:04:21.847Z,55.78
2018-02-20T13:06:52.748Z,48.67
2018-02-20T13:09:23.288Z,54.26
2018-02-20T13:11:53.887Z,60.92
2018-02-20T13:14:24.758Z,66.32
2018-02-20T13:16:55.593Z,58.45
2018-02-20T13:19:26.925Z,53.54
2018-02-20T13:21:57.388Z,53.34
2018-02-20T13:24:27.800Z,57.33
2018-02-20T13:26:58.342Z,50.20
2018-02-20T13:29:29.002Z,42.00
2018-02-20T13:31:59.832Z,53.38
2018-02-20T13:34:30.759Z,47.08
2018-02-20T13:37:01.616Z,44.97
2018-02-20T13:39:32.598Z,54.85
2018-02-20T13:42:03.879Z,56.88
2018-02-20T13:44:39.966Z,49.97
2018-02-20T13:47:09.061Z,46.20
2018-02-20T13:49:38.186Z,48.70
2018-02-20T13:52:08.755Z,45.12
2018-02-20T13:54:39.199Z,54.58
2018-02-20T13:57:09.898Z,44.42
2018-02-20T13:59:41.090Z,62.80
2018-02-20T14:02:11.911Z,56.88
2018-02-20T14:04:43.143Z,68.55
2018-02-20T14:07:13.664Z,57.02
2018-02-20T14:09:44.123Z,48.92
2018-02-20T14:12:14.992Z,58.28
2018-02-20T14:14:45.807Z,69.45
2018-02-20T14:17:16.692Z,67.82
2018-02-20T14:19:47.723Z,60.42
2018-02-20T14:22:19.264Z,59.30
2018-02-20T14:24:50.233Z,54.95
2018-02-20T14:27:20.868Z,70.60
2018-02-20T14:29:51.797Z,45.55
2018-02-20T14:32:22.703Z,55.00
2018-02-20T14:34:53.652Z,60.75
2018-02-20T14:37:24.517Z,49.53
2018-02-20T14:40:08.763Z,52.55
2018-02-20T14:42:38.266Z,46.90
2018-02-20T14:45:07.376Z,48.70
2018-02-20T14:47:36.522Z,49.17
2018-02-20T14:50:05.631Z,48.35
2018-02-20T14:52:34.742Z,38.86
2018-02-20T14:55:03.983Z,46.90
2018-02-20T14:57:33.096Z,49.83
2018-02-20T15:00:03.677Z,61.52
2018-02-20T15:02:34.209Z,75.34
2018-02-20T15:05:04.952Z,54.20
2018-02-20T15:07:35.818Z,69.75
2018-02-20T15:10:06.698Z,74.55
2018-02-20T15:12:37.576Z,51.30
2018-02-20T15:15:08.540Z,48.80
2018-02-20T15:17:38.899Z,49.40
2018-02-20T15:20:09.813Z,40.12
2018-02-20T15:22:40.665Z,48.78
2018-02-20T15:25:12.048Z,44.66
2018-02-20T15:27:42.939Z,42.25
2018-02-20T15:30:13.812Z,48.30
2018-02-20T15:32:44.676Z,55.40
2018-02-20T15:35:15.868Z,60.45
2018-02-20T15:37:46.797Z,52.55
2018-02-20T15:40:17.665Z,52.50
2018-02-20T15:42:48.677Z,51.05
2018-02-20T15:45:19.689Z,55.17
2018-02-20T15:47:50.501Z,54.67
2018-02-20T15:50:21.876Z,50.18
2018-02-20T15:52:52.654Z,51.20
2018-02-20T15:55:23.092Z,55.75
2018-02-20T15:57:53.826Z,53.83
2018-02-20T16:00:24.728Z,48.42
2018-02-20T16:02:55.557Z,51.78
2018-02-20T16:05:27.025Z,51.12
2018-02-20T16:07:57.699Z,51.45
2018-02-20T16:10:28.652Z,50.60
2018-02-20T16:12:59.501Z,55.17
2018-02-20T16:15:29.633Z,55.75
2018-02-20T16:18:00.912Z,58.62
2018-02-20T16:20:31.799Z,57.25
2018-02-20T16:23:03.335Z,64.53
2018-02-20T16:25:33.826Z,78.18
2018-02-20T16:28:04.309Z,65.18
2018-02-20T16:30:34.966Z,61.70
2018-02-20T16:33:05.832Z,62.70
2018-02-20T16:35:36.906Z,82.82
2018-02-20T16:38:07.413Z,81.06
2018-02-20T16:40:37.960Z,63.05
2018-02-20T16:43:08.871Z,63.10
2018-02-20T16:45:39.845Z,79.65
2018-02-20T16:48:10.709Z,72.35
2018-02-20T16:50:41.699Z,75.07
2018-02-20T16:53:12.574Z,73.90
2018-02-20T16:55:43.969Z,72.86
2018-02-20T16:58:14.799Z,69.45
2018-02-20T17:00:45.442Z,83.32
2018-02-20T17:03:17.197Z,121.58
2018-02-20T17:05:47.967Z,388.35
2018-02-20T17:08:18.545Z,561.96
2018-02-20T17:10:49.004Z,598.95
2018-02-20T17:13:19.896Z,185.93
2018-02-20T17:15:50.792Z,169.77
2018-02-20T17:18:21.713Z,202.82
2018-02-20T17:20:52.721Z,208.43
2018-02-20T17:23:23.582Z,197.10
2018-02-20T17:25:55.040Z,195.60
2018-02-20T17:28:25.894Z,172.95
2018-02-20T17:30:56.830Z,227.07
2018-02-20T17:33:27.993Z,241.30
2018-02-20T17:35:58.940Z,234.95
2018-02-20T17:38:29.452Z,234.78
2018-02-20T17:41:00.178Z,234.80
2018-02-20T17:43:31.128Z,217.52
2018-02-20T17:46:02.004Z,223.43
2018-02-20T17:48:33.110Z,217.55
2018-02-20T17:51:06.842Z,227.02
2018-02-20T17:53:36.157Z,228.70
2018-02-20T17:56:06.516Z,207.62
2018-02-20T17:58:37.116Z,215.70
2018-02-20T18:01:07.588Z,199.78
2018-02-20T18:03:38.052Z,186.12
2018-02-20T18:06:08.901Z,193.57
2018-02-20T18:08:39.748Z,194.43
2018-02-20T18:11:12.109Z,175.50
2018-02-20T18:13:41.915Z,150.64
2018-02-20T18:16:12.487Z,137.40
2018-02-20T18:18:42.956Z,115.90
2018-02-20T18:21:14.248Z,133.37
2018-02-20T18:23:45.193Z,131.77
2018-02-20T18:26:16.804Z,166.12
2018-02-20T18:28:47.500Z,200.42
2018-02-20T18:31:18.436Z,256.87
2018-02-20T18:33:48.943Z,237.18
2018-02-20T18:36:19.936Z,149.75
2018-02-20T18:38:49.709Z,102.97
2018-02-20T18:41:20.795Z,103.25
2018-02-20T18:43:51.745Z,106.25
2018-02-20T18:46:22.723Z,98.72
2018-02-20T18:48:53.218Z,111.50
2018-02-20T18:51:24.509Z,115.37
2018-02-20T18:53:54.951Z,104.57
2018-02-20T18:56:25.589Z,100.10
2018-02-20T18:58:55.986Z,97.05
2018-02-20T19:01:26.613Z,97.96
2018-02-20T19:03:59.527Z,96.02
2018-02-20T19:06:29.444Z,109.50
2018-02-20T19:08:59.337Z,120.62
2018-02-20T19:11:29.913Z,165.73
2018-02-20T19:14:00.828Z,459.15
2018-02-20T19:16:32.588Z,492.18
2018-02-20T19:19:02.260Z,311.65
2018-02-20T19:21:33.497Z,178.57
2018-02-20T19:24:03.698Z,154.98
2018-02-20T19:26:34.278Z,122.10
2018-02-20T19:29:04.448Z,123.86
2018-02-20T19:31:34.352Z,158.50
2018-02-20T19:34:05.786Z,161.10
2018-02-20T19:36:36.464Z,260.28
2018-02-20T19:39:06.962Z,356.60
2018-02-20T19:41:37.572Z,396.90
2018-02-20T19:44:08.029Z,367.95
2018-02-20T19:46:39.031Z,375.77
2018-02-20T19:49:09.903Z,356.15
2018-02-20T19:51:40.913Z,372.67
2018-02-20T19:54:11.468Z,405.30
2018-02-20T19:56:42.049Z,248.70
2018-02-20T19:59:12.427Z,161.20
2018-02-20T20:01:43.059Z,126.38
2018-02-20T20:04:13.905Z,110.28
2018-02-20T20:06:44.800Z,102.68
2018-02-20T20:09:15.199Z,160.25
2018-02-20T20:11:46.003Z,201.85
2018-02-20T20:14:16.864Z,227.38
2018-02-20T20:16:47.878Z,210.02
2018-02-20T20:19:19.225Z,208.58
2018-02-20T20:21:49.964Z,203.90
2018-02-20T20:24:20.882Z,202.43
2018-02-20T20:26:51.500Z,192.06
2018-02-20T20:29:23.120Z,172.52
2018-02-20T20:31:53.699Z,163.86
2018-02-20T20:34:24.275Z,154.46
2018-02-20T20:36:54.924Z,158.20
2018-02-20T20:39:25.792Z,172.73
2018-02-20T20:41:56.759Z,164.37
2018-02-20T20:44:28.123Z,170.88
2018-02-20T20:46:59.284Z,161.27
2018-02-20T20:49:29.978Z,156.65
2018-02-20T20:52:00.944Z,152.62
2018-02-20T20:54:32.179Z,136.55
2018-02-20T20:57:04.989Z,129.38
2018-02-20T20:59:34.169Z,111.62
2018-02-20T21:02:04.099Z,102.96
2018-02-20T21:04:35.031Z,100.22
2018-02-20T21:07:05.860Z,93.97
2018-02-20T21:09:36.763Z,106.97
2018-02-20T21:12:07.657Z,124.47
2018-02-20T21:14:39.027Z,106.58
2018-02-20T21:17:08.973Z,121.75
2018-02-20T21:19:39.571Z,153.43
2018-02-20T21:22:10.191Z,138.57
2018-02-20T21:24:41.484Z,131.06
2018-02-20T21:27:12.857Z,131.40
2018-02-20T21:29:43.784Z,116.78
2018-02-20T21:32:14.612Z,128.75
2018-02-20T21:34:45.951Z,116.32
2018-02-20T21:37:16.785Z,119.10
2018-02-20T21:39:47.680Z,162.15
2018-02-20T21:42:18.547Z,189.25
2018-02-20T21:44:49.888Z,188.34
2018-02-20T21:47:20.716Z,124.95
2018-02-20T21:49:51.651Z,93.72
2018-02-20T21:52:22.571Z,98.40
2018-02-20T21:54:53.974Z,106.26
2018-02-20T21:57:24.804Z,107.35
2018-02-20T21:59:55.705Z,114.72
2018-02-20T22:02:26.572Z,138.40
2018-02-20T22:04:58.044Z,118.26
2018-02-20T22:07:28.808Z,124.00
2018-02-20T22:09:59.245Z,120.53
2018-02-20T22:12:29.823Z,132.73
2018-02-20T22:15:00.782Z,140.55
2018-02-20T22:17:31.288Z,141.30
2018-02-20T22:20:02.032Z,199.87
2018-02-20T22:22:32.908Z,297.23
2018-02-20T22:25:03.491Z,265.08
2018-02-20T22:27:33.999Z,222.93
2018-02-20T22:30:04.945Z,135.50
2018-02-20T22:32:35.880Z,109.63
2018-02-20T22:35:06.799Z,101.05
2018-02-20T22:37:37.300Z,119.50
2018-02-20T22:40:07.936Z,208.75
2018-02-20T22:42:38.792Z,340.52
2018-02-20T22:45:09.767Z,270.02
2018-02-20T22:47:41.224Z,207.98
2018-02-20T22:50:11.583Z,137.64
2018-02-20T22:52:42.108Z,142.90
2018-02-20T22:55:12.889Z,208.07
2018-02-20T22:57:43.352Z,205.18
2018-02-20T23:00:14.014Z,112.60
2018-02-20T23:02:44.900Z,82.95
2018-02-20T23:05:15.869Z,81.95
2018-02-20T23:07:46.691Z,77.97
2018-02-20T23:10:17.645Z,91.32
2018-02-20T23:12:48.513Z,90.93
2018-02-20T23:15:19.956Z,89.02
2018-02-20T23:17:50.792Z,90.22
2018-02-20T23:20:21.675Z,87.57
2018-02-20T23:22:52.940Z,89.72
2018-02-20T23:25:25.046Z,84.60
2018-02-20T23:27:55.763Z,77.86
2018-02-20T23:30:26.283Z,83.46
2018-02-20T23:32:56.854Z,99.93
2018-02-20T23:35:27.447Z,98.50
2018-02-20T23:37:57.891Z,90.22
2018-02-20T23:40:28.837Z,84.25
2018-02-20T23:42:59.678Z,89.87
2018-02-20T23:45:30.945Z,82.80
2018-02-20T23:48:01.784Z,79.75
2018-02-20T23:50:32.668Z,96.40
2018-02-20T23:53:03.911Z,90.06
2018-02-20T23:55:34.803Z,85.32
2018-02-20T23:58:05.650Z,105.05
